Latest Weather Observations for Normanton

IDQ60801

Issued at 11:05 pm EST Saturday 25 October 2014 (issued every 30 minutes, with the page automatically refreshed every 10 minutes)

About weather observations | Map of weather stations | Latest weather observations for QLD | Other Formats
Station Details ID: 029063 Name: NORMANTON AIRPORT Lat: -17.69 Lon: 141.07 Height: 18.42 m
Data from the previous 72 hours. | See also: Recent months at Normanton
Date/Time
EST
Temp
°C
App
Temp
°C
Dew
Point
Rel
Hum
%
Delta-T
°C
Wind Press
QNH
hPa
Press
MSL
hPa
Rain
since 9 am
mm
Dir
 
Spd
km/h
Gust
km/h
Spd
kts
Gust
kts
25/11:00pm 24.1 26.1 20.0 78 2.7 W 9 11 5 6 1013.6 - 0.0
25/10:30pm 24.4 26.3 19.7 75 3.0 WNW 9 11 5 6 1013.7 - 0.0
25/10:00pm 24.7 26.4 19.3 72 3.5 NW 9 11 5 6 1014.0 - 0.0
25/09:30pm 25.0 26.3 19.4 71 3.6 N 11 15 6 8 1013.8 - 0.0
25/09:00pm 25.8 26.8 18.7 65 4.5 NNW 11 15 6 8 1013.5 1013.3 0.0
25/08:30pm 26.3 26.7 18.9 63 4.7 NW 15 19 8 10 1013.5 - 0.0
25/08:00pm 27.1 26.9 18.4 59 5.5 NNW 17 20 9 11 1013.3 - 0.0
25/07:30pm 27.6 26.6 17.5 54 6.4 NNW 19 20 10 11 1013.1 - 0.0
25/07:00pm 28.6 27.5 17.2 50 7.2 NNW 19 20 10 11 1012.8 - 0.0
25/06:30pm 30.1 28.1 15.4 41 9.1 NW 20 24 11 13 1012.3 - 0.0
25/06:00pm 31.8 29.0 14.4 34 10.6 NW 22 30 12 16 1011.9 1011.6 0.0
25/05:30pm 33.2 31.0 14.8 33 11.4 NW 20 30 11 16 1011.6 - 0.0
25/05:00pm 35.1 32.5 13.3 27 13.3 NNW 19 22 10 12 1011.4 - 0.0
25/04:30pm 36.3 33.6 5.5 15 16.7 SE 9 17 5 9 1011.4 - 0.0
25/04:00pm 35.8 31.8 5.1 15 16.5 SSE 15 32 8 17 1011.5 - 0.0
25/03:30pm 35.5 32.8 5.8 16 16.1 ESE 9 20 5 11 1011.7 - 0.0
25/03:00pm 35.8 32.4 6.1 16 16.2 SE 13 22 7 12 1012.1 1012.0 0.0
25/02:30pm 34.7 31.7 6.1 17 15.6 ENE 11 19 6 10 1012.6 - 0.0
25/02:00pm 34.7 32.1 7.7 19 15.1 SSE 11 17 6 9 1013.1 - 0.0
25/01:30pm 34.3 31.2 7.4 19 14.9 ESE 13 24 7 13 1013.6 - 0.0
25/01:00pm 34.6 31.4 8.4 20 14.8 S 15 24 8 13 1014.2 - 0.0
25/12:30pm 33.3 30.4 8.0 21 14.1 ESE 13 20 7 11 1015.1 - 0.0
25/12:00pm 32.3 29.5 8.5 23 13.3 ENE 13 20 7 11 1015.6 1015.6 0.0
25/11:30am 31.3 28.8 8.3 24 12.7 E 11 24 6 13 1016.4 - 0.0
25/11:00am 30.8 27.8 9.1 26 12.1 E 15 28 8 15 1017.0 - 0.0
25/10:30am 29.4 27.2 9.5 29 11.1 NE 11 19 6 10 1017.5 - 0.0
25/10:00am 28.9 26.4 9.6 30 10.8 E 13 26 7 14 1018.0 - 0.0
25/09:30am 28.3 25.9 10.0 32 10.3 ENE 13 19 7 10 1018.4 - 0.0
25/09:00am 27.3 23.9 10.5 35 9.4 E 19 26 10 14 1018.6 1018.5 0.0
25/08:30am 26.9 23.4 11.0 37 9.0 ENE 20 30 11 16 1018.6 - 0.0
25/08:00am 25.7 23.0 10.3 38 8.6 ENE 15 26 8 14 1018.6 - 0.0
25/07:30am 24.9 22.4 8.0 34 9.0 ENE 11 17 6 9 1018.3 - 0.0
25/07:00am 23.4 20.5 4.4 29 9.4 ENE 9 17 5 9 1017.8 - 0.0
25/06:30am 21.8 19.2 6.1 36 7.9 ENE 9 13 5 7 1017.2 - 0.0
25/06:00am 21.1 19.7 9.7 48 6.1 ENE 7 11 4 6 1016.8 1016.4 0.0
25/05:30am 22.2 20.8 9.7 45 6.8 NE 7 9 4 5 1016.3 - 0.0
25/05:00am 23.0 21.6 10.8 46 6.8 NE 9 13 5 7 1015.8 - 0.0
25/04:30am 22.8 22.2 10.3 45 6.9 E 4 6 2 3 1015.2 - 0.0
25/04:00am 24.4 23.0 11.0 43 7.5 ENE 9 13 5 7 1014.8 - 0.0
25/03:30am 25.4 23.7 11.2 41 8.0 NE 11 17 6 9 1014.8 - 0.0
25/03:00am 26.3 24.2 11.2 38 8.6 ENE 13 17 7 9 1014.6 1014.3 0.0
25/02:30am 26.6 24.6 11.5 39 8.6 NE 13 19 7 10 1014.2 - 0.0
25/02:00am 26.8 24.9 11.7 39 8.6 NE 13 26 7 14 1014.0 - 0.0
25/01:30am 24.8 24.3 13.7 50 6.5 ENE 9 15 5 8 1014.0 - 0.0
25/01:00am 24.5 25.1 16.7 61 4.8 ESE 9 20 5 11 1014.1 - 0.0
25/12:30am 23.7 25.0 19.4 77 2.8 ENE 11 19 6 10 1014.2 - 0.0
25/12:00am 23.2 25.7 19.8 81 2.2 WSW 6 7 3 4 1013.4 1013.3 0.0
 
Date/Time
EST
Temp
°C
App
Temp
°C
Dew
Point
Rel
Hum
%
Delta-T
°C
Wind Press
QNH
hPa
Press
MSL
hPa
Rain
since 9 am
mm
Dir
 
Spd
km/h
Gust
km/h
Spd
kts
Gust
kts
24/11:30pm 23.3 25.3 19.2 78 2.6 W 7 11 4 6 1013.6 - 0.0
24/11:00pm 23.9 25.6 18.5 72 3.4 WNW 7 9 4 5 1013.8 - 0.0
24/10:30pm 24.2 25.9 18.4 70 3.7 WNW 7 9 4 5 1014.1 - 0.0
24/10:00pm 24.9 26.0 18.1 66 4.3 WNW 9 11 5 6 1014.0 - 0.0
24/09:30pm 25.7 26.8 18.1 63 4.8 NW 9 11 5 6 1013.8 - 0.0
24/09:00pm 26.2 26.6 17.3 58 5.6 NW 11 13 6 7 1013.5 1013.2 0.0
24/08:30pm 26.9 27.2 17.1 55 6.1 NW 11 15 6 8 1013.2 - 0.0
24/08:00pm 27.9 27.7 16.8 50 6.9 NNW 13 15 7 8 1012.9 - 0.0
24/07:30pm 28.7 28.2 15.9 45 7.9 NW 13 17 7 9 1012.5 - 0.0
24/07:00pm 30.6 29.5 14.2 36 9.9 N 13 20 7 11 1012.1 - 0.0
24/06:30pm 33.7 30.2 1.5 13 16.2 ESE 9 13 5 7 1011.5 - 0.0
24/06:00pm 35.2 30.2 1.5 12 17.1 SE 17 26 9 14 1011.2 1011.0 0.0
24/05:30pm 35.8 32.0 2.0 12 17.3 E 11 20 6 11 1011.1 - 0.0
24/05:00pm 35.5 31.5 2.9 13 16.9 ESE 13 20 7 11 1011.0 - 0.0
24/04:30pm 36.1 32.6 3.3 13 17.2 SSE 11 26 6 14 1011.0 - 0.0
24/04:00pm 36.1 30.7 2.2 12 17.5 SE 20 30 11 16 1011.3 - 0.0
24/03:30pm 36.3 31.5 4.6 14 17.0 S 19 33 10 18 1011.7 - 0.0
24/03:00pm 35.5 31.3 3.9 14 16.7 ESE 15 35 8 19 1011.9 1011.8 0.0
24/02:30pm 35.6 32.2 5.9 16 16.2 SE 13 22 7 12 1012.3 - 0.0
24/02:00pm 35.1 30.5 5.5 16 16.0 SE 19 32 10 17 1013.0 - 0.0
24/01:30pm 34.0 30.5 7.1 19 14.8 S 15 24 8 13 1013.6 - 0.0
24/01:00pm 34.0 30.1 7.1 19 14.8 E 17 26 9 14 1014.3 - 0.0
24/12:30pm 33.4 30.3 7.4 20 14.3 E 13 24 7 13 1015.0 - 0.0
24/12:00pm 32.6 29.9 8.8 23 13.4 E 13 24 7 13 1015.6 1015.5 0.0
24/11:30am 32.3 29.3 9.2 24 13.0 ESE 15 30 8 16 1016.1 - 0.0
24/11:00am 31.5 29.4 9.7 26 12.4 E 11 19 6 10 1016.7 - 0.0
24/10:30am 29.8 26.8 9.3 28 11.5 ENE 15 26 8 14 1017.2 - 0.0
24/10:00am 29.5 27.5 10.1 30 11.0 ENE 11 33 6 18 1017.7 - 0.0
24/09:30am 28.9 25.9 10.6 32 10.4 NNE 17 26 9 14 1017.7 - 0.0
24/09:00am 28.4 25.4 10.6 33 10.1 NE 17 24 9 13 1017.9 1017.7 0.0
24/08:30am 27.5 24.4 10.2 34 9.7 ENE 17 26 9 14 1018.0 - 0.0
24/08:00am 27.0 24.4 11.9 39 8.7 ENE 17 26 9 14 1018.1 - 0.0
24/07:30am 26.2 23.9 11.9 41 8.2 E 15 24 8 13 1017.8 - 0.0
24/07:00am 23.8 23.4 15.3 59 5.1 E 11 15 6 8 1017.4 - 0.0
24/06:30am 21.4 22.6 16.8 75 2.8 E 6 9 3 5 1016.8 - 0.0
24/06:00am 21.7 22.7 16.9 74 2.9 ENE 7 9 4 5 1016.4 1016.2 0.0
24/05:30am 22.7 23.3 16.9 70 3.6 NE 9 13 5 7 1015.9 - 0.0
24/05:00am 23.1 23.9 17.3 70 3.6 NE 9 15 5 8 1015.4 - 0.0
24/04:30am 22.4 23.7 18.4 78 2.5 ENE 9 15 5 8 1015.1 - 0.0
24/04:00am 22.5 24.5 19.1 81 2.2 E 7 11 4 6 1014.7 - 0.0
24/03:30am 22.5 24.5 19.1 81 2.2 ESE 7 9 4 5 1014.4 - 0.0
24/03:00am 22.7 24.9 19.5 82 2.0 ESE 7 9 4 5 1014.3 1014.0 0.0
24/02:30am 22.8 25.1 19.8 83 1.9 ESE 7 9 4 5 1014.2 - 0.0
24/02:00am 23.1 25.4 19.9 82 2.1 E 7 9 4 5 1014.2 - 0.0
24/01:30am 22.9 24.9 20.8 88 1.4 ESE 11 19 6 10 1014.1 - 0.0
24/01:00am 22.9 25.2 20.6 87 1.5 SW 9 11 5 6 1013.7 - 0.0
24/12:30am 23.6 26.5 21.1 86 1.6 W 7 9 4 5 1013.5 - 0.0
24/12:00am 24.1 26.6 21.0 83 2.0 W 9 11 5 6 1013.7 1013.6 0.0
 
Date/Time
EST
Temp
°C
App
Temp
°C
Dew
Point
Rel
Hum
%
Delta-T
°C
Wind Press
QNH
hPa
Press
MSL
hPa
Rain
since 9 am
mm
Dir
 
Spd
km/h
Gust
km/h
Spd
kts
Gust
kts
23/11:30pm 24.3 27.1 20.8 81 2.3 WNW 7 11 4 6 1013.9 - 0.0
23/11:00pm 24.6 26.8 20.3 77 2.8 WNW 9 11 5 6 1014.1 - 0.0
23/10:30pm 25.0 27.2 20.3 75 3.1 WNW 9 11 5 6 1014.2 - 0.0
23/10:00pm 25.6 27.7 20.2 72 3.5 NNW 9 13 5 7 1013.9 - 0.0
23/09:30pm 25.9 27.5 20.0 70 3.8 NW 11 13 6 7 1013.7 - 0.0
23/09:00pm 26.3 27.4 19.7 67 4.3 NNW 13 17 7 9 1013.3 1013.1 0.0
23/08:30pm 26.7 27.6 19.3 64 4.8 NNW 13 15 7 8 1012.9 - 0.0
23/08:00pm 28.0 28.0 18.1 55 6.3 NNW 15 17 8 9 1012.6 - 0.0
23/07:30pm 29.2 28.2 16.7 46 7.8 NNW 17 22 9 12 1012.2 - 0.0
23/07:00pm 32.2 30.0 6.4 20 13.9 E 7 11 4 6 1011.8 - 0.0
23/06:30pm 33.6 30.6 6.0 18 14.9 ESE 11 15 6 8 1011.6 - 0.0
23/06:00pm 34.7 31.3 6.1 17 15.6 SE 13 20 7 11 1011.3 1011.0 0.0
23/05:30pm 35.2 31.5 6.5 17 15.7 SE 15 26 8 14 1011.1 - 0.0
23/05:00pm 35.8 31.7 6.1 16 16.2 SE 17 28 9 15 1010.9 - 0.0
23/04:30pm 35.6 31.4 5.9 16 16.2 ESE 17 35 9 19 1010.8 - 0.0
23/04:00pm 35.2 30.4 5.6 16 16.0 SE 20 30 11 16 1011.1 - 0.0
23/03:30pm 35.5 30.0 5.8 16 16.1 SSE 24 35 13 19 1011.2 - 0.0
23/03:00pm 35.2 30.2 6.5 17 15.8 SSE 22 33 12 18 1011.5 1011.3 0.0
23/02:30pm 35.2 31.0 7.3 18 15.5 SSE 19 37 10 20 1011.9 - 0.0
23/02:00pm 34.3 29.7 6.6 18 15.2 SE 20 33 11 18 1012.4 - 0.0
23/01:30pm 35.1 31.2 8.8 20 14.9 E 19 30 10 16 1012.7 - 0.0
23/01:00pm 34.2 31.2 9.4 22 14.2 SE 15 28 8 15 1013.5 - 0.0
23/12:30pm 33.6 29.9 9.6 23 13.7 SE 19 30 10 16 1014.2 - 0.0
23/12:00pm 32.8 29.7 10.2 25 13.0 E 17 28 9 15 1014.7 1014.8 0.0
23/11:30am 31.7 28.3 10.4 27 12.2 E 19 26 10 14 1015.5 - 0.0
23/11:00am 30.9 28.3 10.8 29 11.6 ESE 15 26 8 14 1016.2 - 0.0
23/10:30am 30.5 28.0 11.0 30 11.2 E 15 24 8 13 1016.6 - 0.0
23/10:00am 29.5 26.7 11.5 33 10.4 ENE 17 28 9 15 1016.8 - 0.0
23/09:30am 28.8 25.8 11.8 35 9.8 ENE 19 28 10 15 1017.4 - 0.0
23/09:00am 27.8 24.6 11.8 37 9.2 E 20 32 11 17 1017.5 1017.4 0.0
23/08:30am 27.3 24.2 12.1 39 8.8 ENE 20 30 11 16 1017.6 - 0.0
23/08:00am 26.6 24.4 13.3 43 7.8 ENE 17 26 9 14 1017.3 - 0.0
23/07:30am 25.7 24.1 13.9 48 7.0 E 15 20 8 11 1017.2 - 0.0
23/07:00am 24.7 23.5 13.9 51 6.4 E 13 20 7 11 1016.8 - 0.0
23/06:30am 23.6 22.8 14.0 55 5.6 E 11 17 6 9 1016.5 - 0.0
23/06:00am 23.6 23.0 13.5 53 5.9 E 9 13 5 7 1015.9 1015.7 0.0
23/05:30am 23.9 23.3 13.4 51 6.1 E 9 13 5 7 1015.6 - 0.0
23/05:00am 24.6 23.2 13.5 50 6.5 E 13 19 7 10 1015.0 - 0.0
23/04:30am 25.0 23.9 13.2 48 6.9 E 11 17 6 9 1014.4 - 0.0
23/04:00am 24.9 24.0 13.8 50 6.5 ENE 11 17 6 9 1014.1 - 0.0
23/03:30am 24.7 24.0 14.2 52 6.2 E 11 15 6 8 1014.1 - 0.0
23/03:00am 24.9 24.5 15.2 54 5.8 ENE 11 19 6 10 1014.2 1014.0 0.0
23/02:30am 23.5 23.3 16.8 66 4.1 E 13 17 7 9 1014.2 - 0.0
23/02:00am 22.6 24.4 18.8 79 2.4 ESE 7 9 4 5 1014.3 - 0.0
23/01:30am 22.5 24.4 18.5 78 2.5 ENE 6 7 3 4 1014.5 - 0.0
23/01:00am 22.6 23.8 18.2 76 2.8 E 9 13 5 7 1014.8 - 0.0
23/12:30am 23.2 26.0 18.9 77 2.7 WSW 2 9 1 5 1014.8 - 0.0
23/12:00am 23.8 25.8 18.7 73 3.2 WSW 6 6 3 3 1014.8 1014.6 0.0
 
Date/Time
EST
Temp
°C
App
Temp
°C
Dew
Point
Rel
Hum
%
Delta-T
°C
Wind Press
QNH
hPa
Press
MSL
hPa
Rain
since 9 am
mm
Dir
 
Spd
km/h
Gust
km/h
Spd
kts
Gust
kts
22/11:30pm 24.2 27.0 18.8 72 3.4 W 2 7 1 4 1014.8 - 0.0

Other Formats:

Comma delimited format used in spreadsheet applications
http://www.bom.gov.au/fwo/IDQ60801/IDQ60801.94266.axf

JavaScript Object Notation format (JSON) in row-major order
http://www.bom.gov.au/fwo/IDQ60801/IDQ60801.94266.json